createdAt,value
2023-06-19T00:01:21.705Z,14.43
2023-06-19T00:03:49.594Z,14.50
2023-06-19T00:06:17.998Z,14.57
2023-06-19T00:08:45.998Z,14.59
2023-06-19T00:11:14.221Z,14.59
2023-06-19T00:13:42.390Z,14.57
2023-06-19T00:16:11.021Z,14.54
2023-06-19T00:18:42.198Z,14.56
2023-06-19T00:21:10.367Z,14.51
2023-06-19T00:23:38.697Z,14.39
2023-06-19T00:26:07.877Z,14.30
2023-06-19T00:28:40.224Z,14.14
2023-06-19T00:31:08.268Z,13.97
2023-06-19T00:33:36.313Z,13.92
2023-06-19T00:36:10.182Z,13.94
2023-06-19T00:38:40.591Z,13.97
2023-06-19T00:41:09.402Z,14.01
2023-06-19T00:43:38.079Z,14.04
2023-06-19T00:46:06.098Z,14.12
2023-06-19T00:48:35.686Z,14.14
2023-06-19T00:51:04.118Z,14.12
2023-06-19T00:53:35.755Z,14.11
2023-06-19T00:56:05.153Z,14.09
2023-06-19T00:58:33.620Z,14.05
2023-06-19T01:01:08.810Z,13.96
2023-06-19T01:03:38.647Z,13.83
2023-06-19T01:06:15.586Z,13.77
2023-06-19T01:08:58.728Z,13.79
2023-06-19T01:11:33.074Z,13.80
2023-06-19T01:14:07.387Z,13.78
2023-06-19T01:16:36.675Z,13.75
2023-06-19T01:19:06.601Z,13.69
2023-06-19T01:21:35.600Z,13.62
2023-06-19T01:24:06.102Z,13.58
2023-06-19T01:26:34.413Z,13.55
2023-06-19T01:29:02.453Z,13.54
2023-06-19T01:32:00.351Z,13.54
2023-06-19T01:34:31.679Z,13.52
2023-06-19T01:37:00.638Z,13.46
2023-06-19T01:39:29.728Z,13.46
2023-06-19T01:41:58.977Z,13.46
2023-06-19T01:44:27.551Z,13.44
2023-06-19T01:46:55.706Z,13.44
2023-06-19T01:49:23.866Z,13.45
2023-06-19T01:51:51.978Z,13.42
2023-06-19T01:54:19.864Z,13.35
2023-06-19T01:56:48.085Z,13.27
2023-06-19T01:59:16.080Z,13.21
2023-06-19T02:01:44.314Z,13.09
2023-06-19T02:04:12.512Z,12.94
2023-06-19T02:06:40.588Z,12.91
2023-06-19T02:09:09.225Z,12.94
2023-06-19T02:11:40.101Z,12.98
2023-06-19T02:14:08.149Z,13.04
2023-06-19T02:16:36.406Z,13.06
2023-06-19T02:19:04.622Z,13.11
2023-06-19T02:21:32.553Z,13.16
2023-06-19T02:24:00.792Z,13.18
2023-06-19T02:26:30.432Z,13.22
2023-06-19T02:28:58.337Z,13.24
2023-06-19T02:31:26.263Z,13.28
2023-06-19T02:33:54.182Z,13.28
2023-06-19T02:36:22.498Z,13.22
2023-06-19T02:38:50.602Z,13.22
2023-06-19T02:41:19.583Z,13.21
2023-06-19T02:43:48.202Z,13.18
2023-06-19T02:46:16.430Z,13.22
2023-06-19T02:48:44.559Z,13.25
2023-06-19T02:51:12.682Z,13.27
2023-06-19T02:53:41.582Z,13.31
2023-06-19T02:56:14.568Z,13.32
2023-06-19T02:58:42.684Z,13.27
2023-06-19T03:01:10.654Z,13.24
2023-06-19T03:03:39.305Z,13.26
2023-06-19T03:06:08.723Z,13.24
2023-06-19T03:08:37.845Z,13.22
2023-06-19T03:11:06.663Z,13.32
2023-06-19T03:13:52.836Z,13.42
2023-06-19T03:16:22.242Z,13.47
2023-06-19T03:18:53.086Z,13.52
2023-06-19T03:21:23.347Z,13.56
2023-06-19T03:23:51.503Z,13.63
2023-06-19T03:26:22.618Z,13.75
2023-06-19T03:28:50.648Z,13.86
2023-06-19T03:31:18.808Z,14.01
2023-06-19T03:33:46.828Z,14.19
2023-06-19T03:36:15.207Z,14.36
2023-06-19T03:38:56.534Z,14.58
2023-06-19T03:41:27.530Z,14.75
2023-06-19T03:43:55.762Z,14.90
2023-06-19T03:46:25.307Z,15.06
2023-06-19T03:48:53.393Z,15.24
2023-06-19T03:51:22.283Z,15.39
2023-06-19T03:53:50.709Z,15.47
2023-06-19T03:56:19.179Z,15.54
2023-06-19T03:58:47.137Z,15.57
2023-06-19T04:01:15.067Z,15.62
2023-06-19T04:03:43.626Z,15.80
2023-06-19T04:06:11.613Z,16.00
2023-06-19T04:08:41.450Z,16.12
2023-06-19T04:11:13.256Z,16.26
2023-06-19T04:13:41.678Z,16.42
2023-06-19T04:16:09.983Z,16.56
2023-06-19T04:18:38.045Z,16.68
2023-06-19T04:21:06.544Z,16.84
2023-06-19T04:23:34.649Z,17.02
2023-06-19T04:26:03.281Z,17.20
2023-06-19T04:28:31.299Z,17.31
2023-06-19T04:31:02.196Z,17.51
2023-06-19T04:33:30.878Z,17.71
2023-06-19T04:35:59.081Z,17.90
2023-06-19T04:38:27.167Z,17.96
2023-06-19T04:40:55.357Z,18.04
2023-06-19T04:43:25.749Z,18.08
2023-06-19T04:45:54.770Z,18.09
2023-06-19T04:48:27.186Z,18.09
2023-06-19T04:50:57.937Z,18.11
2023-06-19T04:53:26.373Z,18.14
2023-06-19T04:55:56.190Z,18.27
2023-06-19T04:58:24.138Z,18.37
2023-06-19T05:00:53.468Z,18.53
2023-06-19T05:03:23.201Z,18.66
2023-06-19T05:05:51.532Z,18.82
2023-06-19T05:08:19.460Z,19.01
2023-06-19T05:10:47.436Z,19.12
2023-06-19T05:13:15.474Z,19.28
2023-06-19T05:15:43.552Z,19.53
2023-06-19T05:18:11.616Z,19.83
2023-06-19T05:20:39.726Z,19.90
2023-06-19T05:23:07.844Z,19.81
2023-06-19T05:25:35.821Z,19.68
2023-06-19T05:28:06.067Z,19.62
2023-06-19T05:30:34.337Z,19.69
2023-06-19T05:33:02.529Z,19.73
2023-06-19T05:35:31.555Z,19.51
2023-06-19T05:37:59.567Z,19.45
2023-06-19T05:40:28.807Z,19.39
2023-06-19T05:42:57.320Z,19.51
2023-06-19T05:45:25.296Z,19.61
2023-06-19T05:47:53.329Z,19.48
2023-06-19T05:50:21.429Z,19.35
2023-06-19T05:52:49.541Z,19.36
2023-06-19T05:55:17.623Z,19.52
2023-06-19T05:57:45.842Z,19.64
2023-06-19T06:00:17.561Z,19.64
2023-06-19T06:02:46.013Z,19.66
2023-06-19T06:05:14.447Z,19.71
2023-06-19T06:07:42.370Z,19.93
2023-06-19T06:10:11.117Z,20.14
2023-06-19T06:12:39.128Z,20.30
2023-06-19T06:15:07.756Z,20.24
2023-06-19T06:17:36.393Z,20.23
2023-06-19T06:20:13.808Z,20.39
2023-06-19T06:22:43.264Z,20.65
2023-06-19T06:25:13.214Z,20.79
2023-06-19T06:27:43.222Z,20.74
2023-06-19T06:30:13.057Z,20.78
2023-06-19T06:32:41.203Z,20.99
2023-06-19T06:35:09.786Z,21.19
2023-06-19T06:37:38.113Z,21.43
2023-06-19T06:40:10.807Z,21.63
2023-06-19T06:42:40.093Z,21.63
2023-06-19T06:45:09.021Z,21.85
2023-06-19T06:47:37.048Z,22.04
2023-06-19T06:50:05.746Z,22.23
2023-06-19T06:52:34.019Z,22.42
2023-06-19T06:55:02.073Z,22.57
2023-06-19T06:57:30.053Z,22.73
2023-06-19T06:59:58.277Z,22.97
2023-06-19T07:02:26.453Z,23.27
2023-06-19T07:04:54.764Z,23.40
2023-06-19T07:07:22.794Z,23.55
2023-06-19T07:09:50.942Z,23.63
2023-06-19T07:12:18.970Z,23.94
2023-06-19T07:14:46.912Z,24.19
2023-06-19T07:17:14.812Z,24.41
2023-06-19T07:19:42.808Z,24.62
2023-06-19T07:22:10.953Z,24.87
2023-06-19T07:24:39.136Z,25.03
2023-06-19T07:27:07.879Z,25.18
2023-06-19T07:29:35.967Z,25.34
2023-06-19T07:32:05.729Z,25.31
2023-06-19T07:34:33.910Z,25.05
2023-06-19T07:37:01.905Z,25.01
2023-06-19T07:39:29.876Z,25.16
2023-06-19T07:41:57.986Z,24.99
2023-06-19T07:44:26.274Z,24.95
2023-06-19T07:46:54.367Z,25.00
2023-06-19T07:49:22.404Z,25.02
2023-06-19T07:51:50.397Z,24.96
2023-06-19T07:54:18.473Z,24.86
2023-06-19T07:56:46.404Z,24.81
2023-06-19T07:59:15.427Z,24.96
2023-06-19T08:01:43.713Z,25.20
2023-06-19T08:04:12.161Z,25.25
2023-06-19T08:06:40.152Z,25.25
2023-06-19T08:09:08.460Z,25.40
2023-06-19T08:11:38.499Z,25.49
2023-06-19T08:14:06.548Z,25.77
2023-06-19T08:16:34.575Z,25.80
2023-06-19T08:19:03.372Z,25.98
2023-06-19T08:21:31.352Z,26.30
2023-06-19T08:23:59.744Z,26.10
2023-06-19T08:26:27.865Z,26.01
2023-06-19T08:28:56.237Z,26.20
2023-06-19T08:31:28.595Z,26.05
2023-06-19T08:33:57.167Z,26.10
2023-06-19T08:36:25.470Z,26.30
2023-06-19T08:38:53.969Z,26.70
2023-06-19T08:41:22.208Z,26.96
2023-06-19T08:43:50.256Z,27.16
2023-06-19T08:46:20.073Z,27.52
2023-06-19T08:48:57.199Z,27.79
2023-06-19T08:51:28.082Z,27.70
2023-06-19T08:53:57.898Z,27.69
2023-06-19T08:56:25.778Z,28.00
2023-06-19T08:58:54.859Z,28.19
2023-06-19T09:01:24.721Z,28.28
2023-06-19T09:03:54.032Z,28.55
2023-06-19T09:06:22.342Z,28.76
2023-06-19T09:09:01.074Z,29.19
2023-06-19T09:11:29.572Z,29.19
2023-06-19T09:13:59.748Z,28.95
2023-06-19T09:16:39.014Z,29.37
2023-06-19T09:19:08.043Z,29.97
2023-06-19T09:21:39.543Z,30.09
2023-06-19T09:24:09.415Z,30.06
2023-06-19T09:26:38.227Z,30.42
2023-06-19T09:29:15.973Z,30.35
2023-06-19T09:31:45.745Z,30.33
2023-06-19T09:34:13.720Z,30.19
2023-06-19T09:36:42.655Z,30.39
2023-06-19T09:39:12.025Z,30.12
2023-06-19T09:41:42.058Z,29.88
2023-06-19T09:44:13.954Z,29.70
2023-06-19T09:46:47.197Z,29.57
2023-06-19T09:49:17.172Z,29.54
2023-06-19T09:51:45.428Z,29.44
2023-06-19T09:54:15.857Z,29.01
2023-06-19T09:56:44.503Z,28.41
2023-06-19T09:59:14.764Z,28.41
2023-06-19T10:01:44.138Z,28.46
2023-06-19T10:04:13.776Z,28.21
2023-06-19T10:06:46.433Z,27.94
2023-06-19T10:09:19.640Z,27.69
2023-06-19T10:11:54.779Z,27.52
2023-06-19T10:14:24.069Z,27.46
2023-06-19T10:16:52.472Z,27.67
2023-06-19T10:19:23.605Z,28.08
2023-06-19T10:21:56.563Z,28.38
2023-06-19T10:24:26.739Z,28.43
2023-06-19T10:27:01.159Z,28.58
2023-06-19T10:30:15.046Z,29.04
2023-06-19T10:32:44.308Z,29.21
2023-06-19T10:35:17.365Z,29.07
2023-06-19T10:37:46.256Z,29.34
2023-06-19T10:40:14.427Z,29.48
2023-06-19T10:42:44.066Z,29.10
2023-06-19T10:45:14.748Z,29.03
2023-06-19T10:47:43.013Z,29.28
2023-06-19T10:50:15.571Z,29.36
2023-06-19T10:52:48.789Z,29.17
2023-06-19T10:55:16.774Z,28.98
2023-06-19T10:57:50.077Z,28.70
2023-06-19T11:00:34.375Z,28.28
2023-06-19T11:03:02.392Z,28.06
2023-06-19T11:05:30.522Z,28.01
2023-06-19T11:08:00.759Z,28.20
2023-06-19T11:10:30.272Z,28.56
2023-06-19T11:13:00.415Z,28.73
2023-06-19T11:15:35.947Z,28.85
2023-06-19T11:18:04.516Z,29.07
2023-06-19T11:20:44.840Z,29.27
2023-06-19T11:23:14.265Z,29.47
2023-06-19T11:25:43.373Z,29.65
2023-06-19T11:28:23.606Z,30.00
2023-06-19T11:31:00.718Z,30.20
2023-06-19T11:33:29.182Z,30.34
2023-06-19T11:36:01.938Z,30.50
2023-06-19T11:38:30.197Z,30.77
2023-06-19T11:40:58.513Z,30.99
2023-06-19T11:43:33.854Z,31.18
2023-06-19T11:46:06.556Z,31.34
2023-06-19T11:48:38.443Z,31.33
2023-06-19T11:51:06.823Z,31.30
2023-06-19T11:53:36.642Z,31.33
2023-06-19T11:56:05.064Z,31.46
2023-06-19T11:58:32.971Z,31.48
2023-06-19T12:01:00.967Z,31.34
2023-06-19T12:03:29.232Z,31.14
2023-06-19T12:05:57.461Z,31.03
2023-06-19T12:08:25.405Z,31.00
2023-06-19T12:10:53.620Z,30.88
2023-06-19T12:13:21.865Z,30.91
2023-06-19T12:15:52.579Z,30.78
2023-06-19T12:18:20.746Z,30.44
2023-06-19T12:20:48.750Z,30.23
2023-06-19T12:23:16.859Z,30.09
2023-06-19T12:25:44.832Z,30.02
2023-06-19T12:28:17.886Z,30.05
2023-06-19T12:30:46.942Z,30.08
2023-06-19T12:33:15.140Z,30.11
2023-06-19T12:35:43.246Z,30.04
2023-06-19T12:38:11.708Z,30.04
2023-06-19T12:40:40.087Z,30.01
2023-06-19T12:43:08.149Z,30.07
2023-06-19T12:45:36.202Z,29.97
2023-06-19T12:48:04.921Z,29.77
2023-06-19T12:50:33.194Z,29.43
2023-06-19T12:53:01.232Z,28.65
2023-06-19T12:55:29.183Z,27.92
2023-06-19T12:57:57.323Z,26.99
2023-06-19T13:00:25.428Z,26.21
2023-06-19T13:02:53.725Z,26.02
2023-06-19T13:05:22.114Z,25.68
2023-06-19T13:07:50.099Z,25.41
2023-06-19T13:10:18.114Z,25.55
2023-06-19T13:12:46.207Z,25.31
2023-06-19T13:15:14.140Z,25.19
2023-06-19T13:17:42.174Z,25.31
2023-06-19T13:20:10.543Z,25.49
2023-06-19T13:22:38.786Z,25.39
2023-06-19T13:25:07.423Z,25.20
2023-06-19T13:27:35.561Z,25.05
2023-06-19T13:30:05.983Z,24.98
2023-06-19T13:32:36.937Z,24.90
2023-06-19T13:35:07.061Z,24.72
2023-06-19T13:37:41.739Z,24.54
2023-06-19T13:40:10.964Z,24.29
2023-06-19T13:42:39.898Z,24.16
2023-06-19T13:45:10.232Z,24.12
2023-06-19T13:47:38.390Z,24.18
2023-06-19T13:50:08.094Z,24.21
2023-06-19T13:52:37.564Z,24.27
2023-06-19T13:55:06.021Z,24.29
2023-06-19T13:57:34.004Z,24.27
2023-06-19T14:00:02.172Z,24.24
2023-06-19T14:02:42.066Z,24.18
2023-06-19T14:05:11.152Z,24.25
2023-06-19T14:07:40.419Z,24.41
2023-06-19T14:10:09.166Z,24.71
2023-06-19T14:12:37.413Z,25.00
2023-06-19T14:15:09.653Z,25.08
2023-06-19T14:17:38.013Z,25.11
2023-06-19T14:20:12.146Z,25.19
2023-06-19T14:22:40.618Z,25.01
2023-06-19T14:25:09.576Z,24.84
2023-06-19T14:27:37.664Z,24.77
2023-06-19T14:30:09.074Z,24.82
2023-06-19T14:32:38.192Z,24.93
2023-06-19T14:35:07.321Z,25.12
2023-06-19T14:37:35.489Z,25.27
2023-06-19T14:40:04.280Z,25.54
2023-06-19T14:42:32.311Z,25.78
2023-06-19T14:45:00.278Z,25.88
2023-06-19T14:47:28.602Z,25.75
2023-06-19T14:49:57.098Z,25.65
2023-06-19T14:52:25.430Z,25.62
2023-06-19T14:54:53.795Z,25.65
2023-06-19T14:57:26.928Z,25.56
2023-06-19T14:59:57.072Z,25.57
2023-06-19T15:02:25.107Z,25.47
2023-06-19T15:05:05.103Z,25.22
2023-06-19T15:07:36.266Z,25.03
2023-06-19T15:10:05.491Z,24.95
2023-06-19T15:12:35.902Z,25.02
2023-06-19T15:15:05.023Z,25.10
2023-06-19T15:17:33.155Z,25.02
2023-06-19T15:20:01.174Z,25.06
2023-06-19T15:22:29.655Z,25.11
2023-06-19T15:24:57.753Z,25.16
2023-06-19T15:27:26.013Z,25.27
2023-06-19T15:29:54.369Z,25.32
2023-06-19T15:32:22.623Z,25.29
2023-06-19T15:34:50.499Z,25.16
2023-06-19T15:37:18.575Z,25.08
2023-06-19T15:39:46.607Z,25.00
2023-06-19T15:42:14.606Z,25.00
2023-06-19T15:44:42.509Z,25.07
2023-06-19T15:47:11.154Z,25.21
2023-06-19T15:49:39.225Z,25.39
2023-06-19T15:52:07.282Z,25.46
2023-06-19T15:54:35.403Z,25.46
2023-06-19T15:57:03.765Z,25.52
2023-06-19T15:59:32.130Z,25.53
2023-06-19T16:02:00.215Z,25.43
2023-06-19T16:04:28.681Z,25.39
2023-06-19T16:06:56.582Z,25.39
2023-06-19T16:09:27.406Z,25.47
2023-06-19T16:11:55.571Z,25.53
2023-06-19T16:14:23.689Z,25.58
2023-06-19T16:16:51.682Z,25.61
2023-06-19T16:19:21.525Z,25.61
2023-06-19T16:21:49.914Z,25.47
2023-06-19T16:24:18.351Z,25.17
2023-06-19T16:26:46.417Z,24.96
2023-06-19T16:29:14.747Z,24.74
2023-06-19T16:31:45.402Z,24.61
2023-06-19T16:34:15.197Z,24.52
2023-06-19T16:36:43.284Z,24.41
2023-06-19T16:39:13.691Z,24.27
2023-06-19T16:41:42.049Z,24.11
2023-06-19T16:44:10.042Z,23.98
2023-06-19T16:46:38.680Z,23.95
2023-06-19T16:49:06.809Z,23.95
2023-06-19T16:51:34.775Z,23.95
2023-06-19T16:54:02.921Z,23.97
2023-06-19T16:56:30.928Z,24.01
2023-06-19T16:58:59.129Z,24.05
2023-06-19T17:01:27.074Z,24.07
2023-06-19T17:03:55.305Z,24.00
2023-06-19T17:06:25.360Z,23.90
2023-06-19T17:08:53.571Z,23.84
2023-06-19T17:11:21.741Z,23.80
2023-06-19T17:13:49.652Z,23.73
2023-06-19T17:16:17.660Z,23.61
2023-06-19T17:18:45.833Z,23.49
2023-06-19T17:21:13.777Z,23.34
2023-06-19T17:23:41.867Z,23.19
2023-06-19T17:26:09.936Z,23.10
2023-06-19T17:28:37.992Z,23.07
2023-06-19T17:31:08.647Z,23.06
2023-06-19T17:33:36.679Z,23.02
2023-06-19T17:36:04.808Z,22.98
2023-06-19T17:38:32.860Z,22.95
2023-06-19T17:41:01.666Z,22.91
2023-06-19T17:43:29.846Z,22.86
2023-06-19T17:45:57.786Z,22.77
2023-06-19T17:48:25.655Z,22.70
2023-06-19T17:50:53.738Z,22.63
2023-06-19T17:53:21.810Z,22.56
2023-06-19T17:55:49.669Z,22.46
2023-06-19T17:58:17.752Z,22.36
2023-06-19T18:00:45.727Z,22.30
2023-06-19T18:03:13.853Z,22.20
2023-06-19T18:05:41.846Z,22.08
2023-06-19T18:08:09.828Z,21.91
2023-06-19T18:10:37.861Z,21.72
2023-06-19T18:13:05.866Z,21.55
2023-06-19T18:15:33.855Z,21.45
2023-06-19T18:18:01.943Z,21.35
2023-06-19T18:20:30.159Z,21.22
2023-06-19T18:22:58.111Z,21.04
2023-06-19T18:25:26.013Z,20.86
2023-06-19T18:27:54.245Z,20.73
2023-06-19T18:30:22.916Z,20.60
2023-06-19T18:32:52.621Z,20.36
2023-06-19T18:35:22.143Z,20.21
2023-06-19T18:37:50.402Z,20.08
2023-06-19T18:40:22.608Z,19.96
2023-06-19T18:42:51.518Z,19.83
2023-06-19T18:45:20.000Z,19.75
2023-06-19T18:47:48.420Z,19.70
2023-06-19T18:50:17.545Z,19.62
2023-06-19T18:52:46.152Z,19.53
2023-06-19T18:55:14.445Z,19.46
2023-06-19T18:57:43.013Z,19.35
2023-06-19T19:00:14.267Z,19.23
2023-06-19T19:02:45.323Z,19.12
2023-06-19T19:05:14.349Z,19.04
2023-06-19T19:07:44.413Z,18.96
2023-06-19T19:10:13.652Z,18.91
2023-06-19T19:12:43.421Z,18.84
2023-06-19T19:15:11.899Z,18.76
2023-06-19T19:17:40.406Z,18.70
2023-06-19T19:20:17.499Z,18.64
2023-06-19T19:22:49.577Z,18.60
2023-06-19T19:25:19.645Z,18.55
2023-06-19T19:27:48.125Z,18.47
2023-06-19T19:30:16.381Z,18.39
2023-06-19T19:32:44.480Z,18.33
2023-06-19T19:35:12.741Z,18.30
2023-06-19T19:37:40.842Z,18.27
2023-06-19T19:40:09.675Z,18.23
2023-06-19T19:42:37.694Z,18.19
2023-06-19T19:45:06.854Z,18.16
2023-06-19T19:47:36.171Z,18.14
2023-06-19T19:50:04.959Z,18.10
2023-06-19T19:52:33.052Z,18.04
2023-06-19T19:55:01.112Z,18.00
2023-06-19T19:57:29.649Z,17.97
2023-06-19T19:59:58.056Z,17.84
2023-06-19T20:02:27.174Z,17.74
2023-06-19T20:04:55.193Z,17.64
2023-06-19T20:07:23.119Z,17.53
2023-06-19T20:09:51.121Z,17.42
2023-06-19T20:12:21.860Z,17.37
2023-06-19T20:14:50.374Z,17.33
2023-06-19T20:17:18.446Z,17.30
2023-06-19T20:19:46.589Z,17.31
2023-06-19T20:22:14.788Z,17.31
2023-06-19T20:24:42.796Z,17.25
2023-06-19T20:27:14.709Z,17.19
2023-06-19T20:29:42.994Z,17.14
2023-06-19T20:32:10.982Z,17.12
2023-06-19T20:34:39.238Z,17.10
2023-06-19T20:37:07.460Z,17.07
2023-06-19T20:39:35.388Z,17.03
2023-06-19T20:42:03.715Z,16.97
2023-06-19T20:44:36.168Z,16.92
2023-06-19T20:47:04.772Z,16.91
2023-06-19T20:49:32.709Z,16.91
2023-06-19T20:52:01.067Z,16.93
2023-06-19T20:54:29.032Z,16.92
2023-06-19T20:56:56.971Z,16.90
2023-06-19T20:59:25.178Z,16.88
2023-06-19T21:01:57.529Z,16.88
2023-06-19T21:04:25.605Z,16.86
2023-06-19T21:06:54.646Z,16.83
2023-06-19T21:09:23.596Z,16.82
2023-06-19T21:11:51.737Z,16.77
2023-06-19T21:14:19.788Z,16.68
2023-06-19T21:16:48.383Z,16.61
2023-06-19T21:19:17.229Z,16.54
2023-06-19T21:21:45.996Z,16.54
2023-06-19T21:24:13.967Z,16.55
2023-06-19T21:26:42.071Z,16.57
2023-06-19T21:29:10.057Z,16.57
2023-06-19T21:31:38.148Z,16.55
2023-06-19T21:34:06.500Z,16.52
2023-06-19T21:36:34.730Z,16.48
2023-06-19T21:39:03.948Z,16.46
2023-06-19T21:41:32.178Z,16.47
2023-06-19T21:44:00.501Z,16.47
2023-06-19T21:46:28.503Z,16.46
2023-06-19T21:48:56.752Z,16.44
2023-06-19T21:51:25.124Z,16.42
2023-06-19T21:53:53.273Z,16.33
2023-06-19T21:56:21.252Z,16.16
2023-06-19T21:58:49.159Z,16.03
2023-06-19T22:01:17.132Z,16.02
2023-06-19T22:03:45.349Z,16.07
2023-06-19T22:06:14.030Z,16.11
2023-06-19T22:08:43.331Z,16.12
2023-06-19T22:11:11.816Z,16.13
2023-06-19T22:13:40.573Z,16.17
2023-06-19T22:16:09.217Z,16.21
2023-06-19T22:18:37.501Z,16.26
2023-06-19T22:21:05.545Z,16.28
2023-06-19T22:23:34.018Z,16.32
2023-06-19T22:26:01.988Z,16.35
2023-06-19T22:28:30.157Z,16.37
2023-06-19T22:30:58.634Z,16.35
2023-06-19T22:33:26.908Z,16.36
2023-06-19T22:35:55.068Z,16.32
2023-06-19T22:38:23.582Z,16.30
2023-06-19T22:40:52.032Z,16.32
2023-06-19T22:43:20.216Z,16.34
2023-06-19T22:45:48.390Z,16.37
2023-06-19T22:48:19.666Z,16.43
2023-06-19T22:50:48.324Z,16.50
2023-06-19T22:53:16.445Z,16.53
2023-06-19T22:55:44.372Z,16.54
2023-06-19T22:58:12.365Z,16.49
2023-06-19T23:00:40.304Z,16.39
2023-06-19T23:03:08.533Z,16.28
2023-06-19T23:05:37.165Z,16.24
2023-06-19T23:08:05.458Z,16.20
2023-06-19T23:10:33.371Z,16.09
2023-06-19T23:13:01.329Z,16.05
2023-06-19T23:15:29.430Z,15.90
2023-06-19T23:17:57.483Z,15.72
2023-06-19T23:20:25.569Z,15.56
2023-06-19T23:22:53.469Z,15.47
2023-06-19T23:25:22.387Z,15.41
2023-06-19T23:27:50.430Z,15.37
2023-06-19T23:30:18.879Z,15.35
2023-06-19T23:32:46.910Z,15.34
2023-06-19T23:35:14.940Z,15.32
2023-06-19T23:37:43.203Z,15.30
2023-06-19T23:40:11.662Z,15.26
2023-06-19T23:42:39.727Z,15.24
2023-06-19T23:45:08.458Z,15.22
2023-06-19T23:47:36.615Z,15.19
2023-06-19T23:50:05.431Z,15.15
2023-06-19T23:52:43.046Z,15.14
2023-06-19T23:55:15.867Z,15.13
2023-06-19T23:57:43.864Z,15.10
